Ter Streep — ORDJ — position and weather

sailwx.info

Track history (hours):
 
Tides and Currents Weather Stations Pressure Air Temp Water Temp Dewpoint Dewpoint Depression Visibility Wind Speed Wind Dir Waves Ship Positions

Oceanographic research ship Ter Streep (Belgium)

Detailed information on ship capabilities available from University of Delaware's Ocean Information Center.

Last reported at 2017-Dec-18 09:00 UTC. Time now 2017-Dec-18 09:16 UTC.
Position N 51°16' E 002°52'.

Length 50 m; draft 3.7 m.

Type: Other ship. MMSI: 205112000.

Date/timePositionNaut miles runAvg speedWind from/ knotsBaromVisibWave heightAir tempDewpointWater temp
2017-Dec-18 09:00N 51°16' E 002°52'0 0.7
2017-Dec-18 08:30N 51°16' E 002°52'3 6.9
2017-Dec-18 08:00N 51°14' E 002°56'  
2017-Dec-15 14:28N 51°14' E 002°56'3 5.4
2017-Dec-15 14:00N 51°14' E 002°52'5 9.4
2017-Dec-15 13:30N 51°12' E 002°45'1 1.3
2017-Dec-15 13:00N 51°12' E 002°45'2 4.3
2017-Dec-15 12:29N 51°14' E 002°43'0 0.7
2017-Dec-15 12:00N 51°14' E 002°43'1 0.9
2017-Dec-15 11:19N 51°14' E 002°44'0 1.4
2017-Dec-15 10:59N 51°14' E 002°43'0 0.7
2017-Dec-15 10:30N 51°14' E 002°43'0 0.1
2017-Dec-15 10:00N 51°14' E 002°43'3 6.6
2017-Dec-15 09:29N 51°15' E 002°49'4 9.3
2017-Dec-15 09:00N 51°14' E 002°56'0 0.5
2017-Dec-15 08:11N 51°14' E 002°56'0 0.0
2017-Dec-15 07:59N 51°14' E 002°56'  
Track history (hours):
 
Tides and Currents Weather Stations Pressure Air Temp Water Temp Dewpoint Dewpoint Depression Visibility Wind Speed Wind Dir Waves Ship Positions

Oceanographic research ship Ter Streep (Belgium)

Detailed information on ship capabilities available from University of Delaware's Ocean Information Center.

Last reported at 2017-Dec-18 09:00 UTC. Time now 2017-Dec-18 09:16 UTC.
Position N 51°16' E 002°52'.

Length 50 m; draft 3.7 m.

Type: Other ship. MMSI: 205112000.

Date/timePositionNaut miles runAvg speedWind from/ knotsBaromVisibWave heightAir tempDewpointWater temp
2017-Dec-18 09:00N 51°16' E 002°52'0 0.7
2017-Dec-18 08:30N 51°16' E 002°52'3 6.9
2017-Dec-18 08:00N 51°14' E 002°56'  
2017-Dec-15 14:28N 51°14' E 002°56'3 5.4
2017-Dec-15 14:00N 51°14' E 002°52'5 9.4
2017-Dec-15 13:30N 51°12' E 002°45'1 1.3
2017-Dec-15 13:00N 51°12' E 002°45'2 4.3
2017-Dec-15 12:29N 51°14' E 002°43'0 0.7
2017-Dec-15 12:00N 51°14' E 002°43'1 0.9
2017-Dec-15 11:19N 51°14' E 002°44'0 1.4
2017-Dec-15 10:59N 51°14' E 002°43'0 0.7
2017-Dec-15 10:30N 51°14' E 002°43'0 0.1
2017-Dec-15 10:00N 51°14' E 002°43'3 6.6
2017-Dec-15 09:29N 51°15' E 002°49'4 9.3
2017-Dec-15 09:00N 51°14' E 002°56'0 0.5
2017-Dec-15 08:11N 51°14' E 002°56'0 0.0
2017-Dec-15 07:59N 51°14' E 002°56'  

Dump ship's entire track history